sensor_id;sensor_type;location;lat;lon;timestamp;P1;durP1;ratioP1;P2;durP2;ratioP2
11651;SDS011;5882;48.818;9.114;2023-12-29T00:02:37;1.60;;;1.50;;
11651;SDS011;5882;48.818;9.114;2023-12-29T00:05:22;1.23;;;1.13;;
11651;SDS011;5882;48.818;9.114;2023-12-29T00:08:07;1.75;;;1.65;;
11651;SDS011;5882;48.818;9.114;2023-12-29T00:10:53;1.40;;;1.30;;
11651;SDS011;5882;48.818;9.114;2023-12-29T00:13:38;1.35;;;1.25;;
11651;SDS011;5882;48.818;9.114;2023-12-29T00:16:24;1.83;;;1.27;;
11651;SDS011;5882;48.818;9.114;2023-12-29T00:19:09;1.48;;;1.38;;
11651;SDS011;5882;48.818;9.114;2023-12-29T00:21:54;1.45;;;1.35;;
11651;SDS011;5882;48.818;9.114;2023-12-29T00:24:40;3.65;;;1.80;;
11651;SDS011;5882;48.818;9.114;2023-12-29T00:27:25;2.22;;;1.70;;
11651;SDS011;5882;48.818;9.114;2023-12-29T00:30:10;1.75;;;1.60;;
11651;SDS011;5882;48.818;9.114;2023-12-29T00:32:57;2.15;;;1.98;;
11651;SDS011;5882;48.818;9.114;2023-12-29T00:35:42;1.63;;;1.52;;
11651;SDS011;5882;48.818;9.114;2023-12-29T00:38:27;1.40;;;1.30;;
11651;SDS011;5882;48.818;9.114;2023-12-29T00:41:12;1.70;;;1.60;;
11651;SDS011;5882;48.818;9.114;2023-12-29T00:43:57;1.67;;;1.42;;
11651;SDS011;5882;48.818;9.114;2023-12-29T00:46:42;1.77;;;1.67;;
11651;SDS011;5882;48.818;9.114;2023-12-29T00:49:28;1.70;;;1.60;;
11651;SDS011;5882;48.818;9.114;2023-12-29T00:52:13;1.60;;;1.50;;
11651;SDS011;5882;48.818;9.114;2023-12-29T00:54:58;2.10;;;1.52;;
11651;SDS011;5882;48.818;9.114;2023-12-29T00:57:43;1.40;;;1.30;;
11651;SDS011;5882;48.818;9.114;2023-12-29T01:00:28;1.50;;;1.40;;
11651;SDS011;5882;48.818;9.114;2023-12-29T01:03:13;1.55;;;1.45;;
11651;SDS011;5882;48.818;9.114;2023-12-29T01:05:59;1.15;;;1.15;;
11651;SDS011;5882;48.818;9.114;2023-12-29T01:08:44;1.90;;;1.52;;
11651;SDS011;5882;48.818;9.114;2023-12-29T01:11:30;1.80;;;1.70;;
11651;SDS011;5882;48.818;9.114;2023-12-29T01:14:15;1.52;;;1.40;;
11651;SDS011;5882;48.818;9.114;2023-12-29T01:17:00;1.40;;;1.30;;
11651;SDS011;5882;48.818;9.114;2023-12-29T01:19:45;1.70;;;1.48;;
11651;SDS011;5882;48.818;9.114;2023-12-29T01:22:32;1.45;;;1.35;;
11651;SDS011;5882;48.818;9.114;2023-12-29T01:25:17;1.60;;;1.50;;
11651;SDS011;5882;48.818;9.114;2023-12-29T01:28:02;2.30;;;2.10;;
11651;SDS011;5882;48.818;9.114;2023-12-29T01:30:47;1.70;;;1.60;;
11651;SDS011;5882;48.818;9.114;2023-12-29T01:33:32;2.90;;;1.77;;
11651;SDS011;5882;48.818;9.114;2023-12-29T01:36:17;1.50;;;1.40;;
11651;SDS011;5882;48.818;9.114;2023-12-29T01:39:04;1.70;;;1.60;;
11651;SDS011;5882;48.818;9.114;2023-12-29T01:41:49;1.65;;;1.50;;
11651;SDS011;5882;48.818;9.114;2023-12-29T01:44:34;1.88;;;1.67;;
11651;SDS011;5882;48.818;9.114;2023-12-29T01:47:19;1.40;;;1.30;;
11651;SDS011;5882;48.818;9.114;2023-12-29T01:50:05;1.83;;;1.60;;
11651;SDS011;5882;48.818;9.114;2023-12-29T01:52:50;1.67;;;1.58;;
11651;SDS011;5882;48.818;9.114;2023-12-29T01:55:39;1.83;;;1.73;;
11651;SDS011;5882;48.818;9.114;2023-12-29T01:58:24;1.60;;;1.50;;
11651;SDS011;5882;48.818;9.114;2023-12-29T02:01:09;1.67;;;1.58;;
11651;SDS011;5882;48.818;9.114;2023-12-29T02:03:54;1.20;;;1.20;;
11651;SDS011;5882;48.818;9.114;2023-12-29T02:06:40;1.50;;;1.40;;
11651;SDS011;5882;48.818;9.114;2023-12-29T02:09:25;1.83;;;1.67;;
11651;SDS011;5882;48.818;9.114;2023-12-29T02:12:12;2.15;;;1.95;;
11651;SDS011;5882;48.818;9.114;2023-12-29T02:14:57;2.15;;;1.77;;
11651;SDS011;5882;48.818;9.114;2023-12-29T02:17:43;1.90;;;1.65;;
11651;SDS011;5882;48.818;9.114;2023-12-29T02:20:30;1.70;;;1.60;;
11651;SDS011;5882;48.818;9.114;2023-12-29T02:23:15;1.92;;;1.80;;
11651;SDS011;5882;48.818;9.114;2023-12-29T02:26:02;1.60;;;1.50;;
11651;SDS011;5882;48.818;9.114;2023-12-29T02:28:53;1.52;;;1.42;;
11651;SDS011;5882;48.818;9.114;2023-12-29T02:31:41;2.10;;;1.48;;
11651;SDS011;5882;48.818;9.114;2023-12-29T02:34:28;1.83;;;1.65;;
11651;SDS011;5882;48.818;9.114;2023-12-29T02:37:14;1.70;;;1.60;;
11651;SDS011;5882;48.818;9.114;2023-12-29T02:39:59;1.50;;;1.40;;
11651;SDS011;5882;48.818;9.114;2023-12-29T02:42:46;2.70;;;1.50;;
11651;SDS011;5882;48.818;9.114;2023-12-29T02:45:32;1.88;;;1.70;;
11651;SDS011;5882;48.818;9.114;2023-12-29T02:48:17;1.75;;;1.60;;
11651;SDS011;5882;48.818;9.114;2023-12-29T02:51:02;2.05;;;1.85;;
11651;SDS011;5882;48.818;9.114;2023-12-29T02:53:47;2.20;;;1.85;;
11651;SDS011;5882;48.818;9.114;2023-12-29T02:56:33;2.20;;;1.60;;
11651;SDS011;5882;48.818;9.114;2023-12-29T02:59:19;1.45;;;1.35;;
11651;SDS011;5882;48.818;9.114;2023-12-29T03:02:04;1.65;;;1.55;;
11651;SDS011;5882;48.818;9.114;2023-12-29T03:04:49;3.42;;;1.75;;
11651;SDS011;5882;48.818;9.114;2023-12-29T03:07:35;1.92;;;1.77;;
11651;SDS011;5882;48.818;9.114;2023-12-29T03:10:20;1.88;;;1.70;;
11651;SDS011;5882;48.818;9.114;2023-12-29T03:13:05;1.70;;;1.60;;
11651;SDS011;5882;48.818;9.114;2023-12-29T03:15:51;1.90;;;1.80;;
11651;SDS011;5882;48.818;9.114;2023-12-29T03:18:36;1.85;;;1.70;;
11651;SDS011;5882;48.818;9.114;2023-12-29T03:21:23;1.92;;;1.65;;
11651;SDS011;5882;48.818;9.114;2023-12-29T03:24:09;1.60;;;1.40;;
11651;SDS011;5882;48.818;9.114;2023-12-29T03:26:54;1.52;;;1.42;;
11651;SDS011;5882;48.818;9.114;2023-12-29T03:29:39;1.77;;;1.67;;
11651;SDS011;5882;48.818;9.114;2023-12-29T03:32:25;2.15;;;1.95;;
11651;SDS011;5882;48.818;9.114;2023-12-29T03:35:11;1.70;;;1.60;;
11651;SDS011;5882;48.818;9.114;2023-12-29T03:37:56;1.77;;;1.67;;
11651;SDS011;5882;48.818;9.114;2023-12-29T03:40:41;1.90;;;1.80;;
11651;SDS011;5882;48.818;9.114;2023-12-29T03:43:26;1.70;;;1.60;;
11651;SDS011;5882;48.818;9.114;2023-12-29T03:46:15;2.20;;;1.80;;
11651;SDS011;5882;48.818;9.114;2023-12-29T03:49:01;2.38;;;1.52;;
11651;SDS011;5882;48.818;9.114;2023-12-29T03:51:46;2.00;;;1.80;;
11651;SDS011;5882;48.818;9.114;2023-12-29T03:54:31;1.88;;;1.50;;
11651;SDS011;5882;48.818;9.114;2023-12-29T03:57:16;2.15;;;1.60;;
11651;SDS011;5882;48.818;9.114;2023-12-29T04:00:01;1.50;;;1.40;;
11651;SDS011;5882;48.818;9.114;2023-12-29T04:02:47;1.45;;;1.35;;
11651;SDS011;5882;48.818;9.114;2023-12-29T04:05:33;1.85;;;1.67;;
11651;SDS011;5882;48.818;9.114;2023-12-29T04:08:18;2.13;;;1.35;;
11651;SDS011;5882;48.818;9.114;2023-12-29T04:11:03;1.30;;;1.20;;
11651;SDS011;5882;48.818;9.114;2023-12-29T04:13:48;1.40;;;1.30;;
11651;SDS011;5882;48.818;9.114;2023-12-29T04:16:33;1.75;;;1.65;;
11651;SDS011;5882;48.818;9.114;2023-12-29T04:19:18;1.70;;;1.60;;
11651;SDS011;5882;48.818;9.114;2023-12-29T04:22:04;1.38;;;1.27;;
11651;SDS011;5882;48.818;9.114;2023-12-29T04:24:50;1.73;;;1.40;;
11651;SDS011;5882;48.818;9.114;2023-12-29T04:27:35;1.50;;;1.40;;
11651;SDS011;5882;48.818;9.114;2023-12-29T04:30:19;1.50;;;1.40;;
11651;SDS011;5882;48.818;9.114;2023-12-29T04:33:05;1.50;;;1.40;;
11651;SDS011;5882;48.818;9.114;2023-12-29T04:35:49;1.58;;;1.48;;
11651;SDS011;5882;48.818;9.114;2023-12-29T04:38:36;1.17;;;1.17;;
11651;SDS011;5882;48.818;9.114;2023-12-29T04:41:21;1.60;;;1.50;;
11651;SDS011;5882;48.818;9.114;2023-12-29T04:44:06;1.40;;;1.30;;
11651;SDS011;5882;48.818;9.114;2023-12-29T04:46:51;1.52;;;1.42;;
11651;SDS011;5882;48.818;9.114;2023-12-29T04:49:36;1.40;;;1.30;;
11651;SDS011;5882;48.818;9.114;2023-12-29T04:52:22;1.60;;;1.50;;
11651;SDS011;5882;48.818;9.114;2023-12-29T04:55:09;1.70;;;1.60;;
11651;SDS011;5882;48.818;9.114;2023-12-29T04:57:55;1.60;;;1.50;;
11651;SDS011;5882;48.818;9.114;2023-12-29T05:00:40;1.30;;;1.23;;
11651;SDS011;5882;48.818;9.114;2023-12-29T05:03:25;1.63;;;1.40;;
11651;SDS011;5882;48.818;9.114;2023-12-29T05:06:10;1.75;;;1.65;;
11651;SDS011;5882;48.818;9.114;2023-12-29T05:08:55;1.80;;;1.60;;
11651;SDS011;5882;48.818;9.114;2023-12-29T05:11:42;2.00;;;1.55;;
11651;SDS011;5882;48.818;9.114;2023-12-29T05:14:28;1.60;;;1.50;;
11651;SDS011;5882;48.818;9.114;2023-12-29T05:17:13;1.80;;;1.70;;
11651;SDS011;5882;48.818;9.114;2023-12-29T05:19:58;1.50;;;1.40;;
11651;SDS011;5882;48.818;9.114;2023-12-29T05:22:43;1.77;;;1.67;;
11651;SDS011;5882;48.818;9.114;2023-12-29T05:25:28;3.17;;;1.50;;
11651;SDS011;5882;48.818;9.114;2023-12-29T05:28:15;1.50;;;1.23;;
11651;SDS011;5882;48.818;9.114;2023-12-29T05:30:59;1.90;;;1.58;;
11651;SDS011;5882;48.818;9.114;2023-12-29T05:33:47;1.42;;;1.33;;
11651;SDS011;5882;48.818;9.114;2023-12-29T05:36:34;1.55;;;1.45;;
11651;SDS011;5882;48.818;9.114;2023-12-29T05:39:19;1.17;;;1.17;;
11651;SDS011;5882;48.818;9.114;2023-12-29T05:42:04;1.33;;;1.23;;
11651;SDS011;5882;48.818;9.114;2023-12-29T05:44:51;1.70;;;1.60;;
11651;SDS011;5882;48.818;9.114;2023-12-29T05:47:36;1.50;;;1.40;;
11651;SDS011;5882;48.818;9.114;2023-12-29T05:50:21;1.75;;;1.45;;
11651;SDS011;5882;48.818;9.114;2023-12-29T05:53:07;1.60;;;1.50;;
11651;SDS011;5882;48.818;9.114;2023-12-29T05:55:52;1.60;;;1.50;;
11651;SDS011;5882;48.818;9.114;2023-12-29T05:58:37;1.75;;;1.65;;
11651;SDS011;5882;48.818;9.114;2023-12-29T06:01:24;1.83;;;1.70;;
11651;SDS011;5882;48.818;9.114;2023-12-29T06:04:09;1.50;;;1.40;;
11651;SDS011;5882;48.818;9.114;2023-12-29T06:06:54;1.60;;;1.50;;
11651;SDS011;5882;48.818;9.114;2023-12-29T06:09:39;1.55;;;1.45;;
11651;SDS011;5882;48.818;9.114;2023-12-29T06:12:24;1.40;;;1.30;;
11651;SDS011;5882;48.818;9.114;2023-12-29T06:15:09;1.63;;;1.52;;
11651;SDS011;5882;48.818;9.114;2023-12-29T06:17:58;1.60;;;1.50;;
11651;SDS011;5882;48.818;9.114;2023-12-29T06:20:43;1.55;;;1.30;;
11651;SDS011;5882;48.818;9.114;2023-12-29T06:23:28;1.70;;;1.50;;
11651;SDS011;5882;48.818;9.114;2023-12-29T06:26:14;1.52;;;1.42;;
11651;SDS011;5882;48.818;9.114;2023-12-29T06:29:00;1.80;;;1.70;;
11651;SDS011;5882;48.818;9.114;2023-12-29T06:31:46;1.48;;;1.38;;
11651;SDS011;5882;48.818;9.114;2023-12-29T06:34:32;1.55;;;1.45;;
11651;SDS011;5882;48.818;9.114;2023-12-29T06:37:18;1.70;;;1.60;;
11651;SDS011;5882;48.818;9.114;2023-12-29T06:40:03;1.40;;;1.30;;
11651;SDS011;5882;48.818;9.114;2023-12-29T06:42:49;2.10;;;1.50;;
11651;SDS011;5882;48.818;9.114;2023-12-29T06:45:34;1.33;;;1.23;;
11651;SDS011;5882;48.818;9.114;2023-12-29T06:48:19;1.40;;;1.30;;
11651;SDS011;5882;48.818;9.114;2023-12-29T06:51:05;2.42;;;1.40;;
11651;SDS011;5882;48.818;9.114;2023-12-29T06:53:51;1.33;;;1.23;;
11651;SDS011;5882;48.818;9.114;2023-12-29T06:56:36;1.38;;;1.27;;
11651;SDS011;5882;48.818;9.114;2023-12-29T06:59:22;1.30;;;1.20;;
11651;SDS011;5882;48.818;9.114;2023-12-29T07:02:07;1.70;;;1.40;;
11651;SDS011;5882;48.818;9.114;2023-12-29T07:04:52;1.38;;;1.27;;
11651;SDS011;5882;48.818;9.114;2023-12-29T07:07:38;1.88;;;1.70;;
11651;SDS011;5882;48.818;9.114;2023-12-29T07:10:23;2.20;;;2.00;;
11651;SDS011;5882;48.818;9.114;2023-12-29T07:13:08;1.75;;;1.50;;
11651;SDS011;5882;48.818;9.114;2023-12-29T07:15:54;2.22;;;1.50;;
11651;SDS011;5882;48.818;9.114;2023-12-29T07:18:39;1.38;;;1.27;;
11651;SDS011;5882;48.818;9.114;2023-12-29T07:21:25;1.30;;;1.20;;
11651;SDS011;5882;48.818;9.114;2023-12-29T07:24:12;1.40;;;1.30;;
11651;SDS011;5882;48.818;9.114;2023-12-29T07:26:57;1.38;;;1.25;;
11651;SDS011;5882;48.818;9.114;2023-12-29T07:29:42;1.20;;;1.20;;
11651;SDS011;5882;48.818;9.114;2023-12-29T07:32:28;1.00;;;1.00;;
11651;SDS011;5882;48.818;9.114;2023-12-29T07:35:13;1.42;;;1.33;;
11651;SDS011;5882;48.818;9.114;2023-12-29T07:38:00;1.33;;;1.23;;
11651;SDS011;5882;48.818;9.114;2023-12-29T07:40:47;1.00;;;1.00;;
11651;SDS011;5882;48.818;9.114;2023-12-29T07:43:32;1.02;;;1.02;;
11651;SDS011;5882;48.818;9.114;2023-12-29T07:46:23;1.35;;;1.25;;
11651;SDS011;5882;48.818;9.114;2023-12-29T07:49:08;1.05;;;1.00;;
11651;SDS011;5882;48.818;9.114;2023-12-29T07:51:53;1.10;;;1.10;;
11651;SDS011;5882;48.818;9.114;2023-12-29T07:54:39;1.40;;;1.30;;
11651;SDS011;5882;48.818;9.114;2023-12-29T07:57:26;1.42;;;1.33;;
11651;SDS011;5882;48.818;9.114;2023-12-29T08:00:11;1.20;;;1.15;;
11651;SDS011;5882;48.818;9.114;2023-12-29T08:02:56;1.30;;;1.20;;
11651;SDS011;5882;48.818;9.114;2023-12-29T08:05:42;1.20;;;1.20;;
11651;SDS011;5882;48.818;9.114;2023-12-29T08:08:30;1.42;;;1.33;;
11651;SDS011;5882;48.818;9.114;2023-12-29T08:11:15;1.38;;;1.27;;
11651;SDS011;5882;48.818;9.114;2023-12-29T08:14:02;1.10;;;1.10;;
11651;SDS011;5882;48.818;9.114;2023-12-29T08:16:50;1.17;;;1.08;;
11651;SDS011;5882;48.818;9.114;2023-12-29T08:19:35;1.85;;;1.15;;
11651;SDS011;5882;48.818;9.114;2023-12-29T08:22:21;1.30;;;1.20;;
11651;SDS011;5882;48.818;9.114;2023-12-29T08:25:07;1.33;;;1.23;;
11651;SDS011;5882;48.818;9.114;2023-12-29T08:27:52;1.30;;;1.20;;
11651;SDS011;5882;48.818;9.114;2023-12-29T08:30:39;1.45;;;1.30;;
11651;SDS011;5882;48.818;9.114;2023-12-29T08:33:24;2.70;;;1.70;;
11651;SDS011;5882;48.818;9.114;2023-12-29T08:36:11;1.25;;;1.15;;
11651;SDS011;5882;48.818;9.114;2023-12-29T08:38:56;1.50;;;1.40;;
11651;SDS011;5882;48.818;9.114;2023-12-29T08:41:42;1.58;;;1.48;;
11651;SDS011;5882;48.818;9.114;2023-12-29T08:44:27;1.40;;;1.30;;
11651;SDS011;5882;48.818;9.114;2023-12-29T08:47:13;1.73;;;1.25;;
11651;SDS011;5882;48.818;9.114;2023-12-29T08:49:58;1.20;;;1.10;;
11651;SDS011;5882;48.818;9.114;2023-12-29T08:52:43;1.33;;;1.23;;
11651;SDS011;5882;48.818;9.114;2023-12-29T08:55:28;1.15;;;1.15;;
11651;SDS011;5882;48.818;9.114;2023-12-29T08:58:15;1.42;;;1.33;;
11651;SDS011;5882;48.818;9.114;2023-12-29T09:01:00;1.35;;;1.25;;
11651;SDS011;5882;48.818;9.114;2023-12-29T09:03:46;1.50;;;1.40;;
11651;SDS011;5882;48.818;9.114;2023-12-29T09:06:31;1.38;;;1.27;;
11651;SDS011;5882;48.818;9.114;2023-12-29T09:09:17;1.35;;;1.25;;
11651;SDS011;5882;48.818;9.114;2023-12-29T09:12:02;1.33;;;1.23;;
11651;SDS011;5882;48.818;9.114;2023-12-29T09:14:47;1.35;;;1.25;;
11651;SDS011;5882;48.818;9.114;2023-12-29T09:17:32;1.15;;;1.05;;
11651;SDS011;5882;48.818;9.114;2023-12-29T09:20:19;2.42;;;1.58;;
11651;SDS011;5882;48.818;9.114;2023-12-29T09:23:04;1.00;;;1.00;;
11651;SDS011;5882;48.818;9.114;2023-12-29T09:25:49;1.42;;;1.33;;
11651;SDS011;5882;48.818;9.114;2023-12-29T09:28:34;2.53;;;1.50;;
11651;SDS011;5882;48.818;9.114;2023-12-29T09:31:19;1.30;;;1.20;;
11651;SDS011;5882;48.818;9.114;2023-12-29T09:34:04;1.20;;;1.10;;
11651;SDS011;5882;48.818;9.114;2023-12-29T09:36:51;1.20;;;1.10;;
11651;SDS011;5882;48.818;9.114;2023-12-29T09:39:36;1.20;;;1.20;;
11651;SDS011;5882;48.818;9.114;2023-12-29T09:42:23;1.23;;;1.13;;
11651;SDS011;5882;48.818;9.114;2023-12-29T09:45:10;1.20;;;1.10;;
11651;SDS011;5882;48.818;9.114;2023-12-29T09:47:56;1.27;;;1.17;;
11651;SDS011;5882;48.818;9.114;2023-12-29T09:50:41;1.20;;;1.10;;
11651;SDS011;5882;48.818;9.114;2023-12-29T09:53:28;1.52;;;1.20;;
11651;SDS011;5882;48.818;9.114;2023-12-29T09:56:13;1.10;;;1.00;;
11651;SDS011;5882;48.818;9.114;2023-12-29T09:58:58;1.23;;;1.15;;
11651;SDS011;5882;48.818;9.114;2023-12-29T10:01:44;1.35;;;1.25;;
11651;SDS011;5882;48.818;9.114;2023-12-29T10:04:30;1.25;;;1.15;;
11651;SDS011;5882;48.818;9.114;2023-12-29T10:07:18;1.42;;;1.33;;
11651;SDS011;5882;48.818;9.114;2023-12-29T10:10:06;1.17;;;1.17;;
11651;SDS011;5882;48.818;9.114;2023-12-29T10:12:51;1.63;;;1.52;;
11651;SDS011;5882;48.818;9.114;2023-12-29T10:15:37;1.20;;;1.10;;
11651;SDS011;5882;48.818;9.114;2023-12-29T10:18:28;1.02;;;1.02;;
11651;SDS011;5882;48.818;9.114;2023-12-29T10:21:16;1.27;;;1.17;;
11651;SDS011;5882;48.818;9.114;2023-12-29T10:24:06;1.30;;;1.15;;
11651;SDS011;5882;48.818;9.114;2023-12-29T10:26:53;1.48;;;1.38;;
11651;SDS011;5882;48.818;9.114;2023-12-29T10:29:39;1.10;;;1.10;;
11651;SDS011;5882;48.818;9.114;2023-12-29T10:32:25;1.15;;;1.10;;
11651;SDS011;5882;48.818;9.114;2023-12-29T10:35:13;1.00;;;1.00;;
11651;SDS011;5882;48.818;9.114;2023-12-29T10:38:07;1.30;;;1.20;;
11651;SDS011;5882;48.818;9.114;2023-12-29T10:40:52;1.42;;;1.30;;
11651;SDS011;5882;48.818;9.114;2023-12-29T10:43:39;1.30;;;1.20;;
11651;SDS011;5882;48.818;9.114;2023-12-29T10:46:24;1.15;;;1.08;;
11651;SDS011;5882;48.818;9.114;2023-12-29T10:49:10;1.10;;;1.10;;
11651;SDS011;5882;48.818;9.114;2023-12-29T10:51:56;1.20;;;1.10;;
11651;SDS011;5882;48.818;9.114;2023-12-29T10:54:41;1.05;;;1.00;;
11651;SDS011;5882;48.818;9.114;2023-12-29T10:57:26;0.80;;;0.80;;
11651;SDS011;5882;48.818;9.114;2023-12-29T11:00:13;1.02;;;1.02;;
11651;SDS011;5882;48.818;9.114;2023-12-29T11:02:59;1.10;;;1.10;;
11651;SDS011;5882;48.818;9.114;2023-12-29T11:05:45;0.93;;;0.93;;
11651;SDS011;5882;48.818;9.114;2023-12-29T11:08:30;0.90;;;0.90;;
11651;SDS011;5882;48.818;9.114;2023-12-29T11:11:20;0.80;;;0.80;;
11651;SDS011;5882;48.818;9.114;2023-12-29T11:14:06;0.93;;;0.93;;
11651;SDS011;5882;48.818;9.114;2023-12-29T11:16:56;1.40;;;0.90;;
11651;SDS011;5882;48.818;9.114;2023-12-29T11:19:42;0.90;;;0.90;;
11651;SDS011;5882;48.818;9.114;2023-12-29T11:22:29;1.15;;;1.05;;
11651;SDS011;5882;48.818;9.114;2023-12-29T11:25:15;1.00;;;1.00;;
11651;SDS011;5882;48.818;9.114;2023-12-29T11:28:01;0.80;;;0.80;;
11651;SDS011;5882;48.818;9.114;2023-12-29T11:30:46;1.15;;;0.98;;
11651;SDS011;5882;48.818;9.114;2023-12-29T11:33:34;1.00;;;1.00;;
11651;SDS011;5882;48.818;9.114;2023-12-29T11:36:23;1.13;;;1.13;;
11651;SDS011;5882;48.818;9.114;2023-12-29T11:39:16;1.15;;;0.90;;
11651;SDS011;5882;48.818;9.114;2023-12-29T11:42:03;0.80;;;0.80;;
11651;SDS011;5882;48.818;9.114;2023-12-29T11:44:50;0.90;;;0.90;;
11651;SDS011;5882;48.818;9.114;2023-12-29T11:47:35;0.90;;;0.90;;
11651;SDS011;5882;48.818;9.114;2023-12-29T11:50:28;1.38;;;0.90;;
11651;SDS011;5882;48.818;9.114;2023-12-29T11:53:30;1.33;;;1.30;;
11651;SDS011;5882;48.818;9.114;2023-12-29T11:56:16;0.93;;;0.93;;
11651;SDS011;5882;48.818;9.114;2023-12-29T11:59:17;1.00;;;1.00;;
11651;SDS011;5882;48.818;9.114;2023-12-29T12:02:03;0.90;;;0.90;;
11651;SDS011;5882;48.818;9.114;2023-12-29T12:04:50;1.40;;;0.90;;
11651;SDS011;5882;48.818;9.114;2023-12-29T12:10:40;0.93;;;0.93;;
11651;SDS011;5882;48.818;9.114;2023-12-29T12:13:44;1.00;;;1.00;;
11651;SDS011;5882;48.818;9.114;2023-12-29T12:19:41;0.80;;;0.80;;
11651;SDS011;5882;48.818;9.114;2023-12-29T12:22:28;0.80;;;0.80;;
11651;SDS011;5882;48.818;9.114;2023-12-29T12:25:14;0.90;;;0.90;;
11651;SDS011;5882;48.818;9.114;2023-12-29T12:28:01;0.90;;;0.90;;
11651;SDS011;5882;48.818;9.114;2023-12-29T12:30:49;0.90;;;0.90;;
11651;SDS011;5882;48.818;9.114;2023-12-29T12:33:34;0.88;;;0.88;;
11651;SDS011;5882;48.818;9.114;2023-12-29T12:36:19;1.08;;;0.90;;
11651;SDS011;5882;48.818;9.114;2023-12-29T12:39:04;1.15;;;1.10;;
11651;SDS011;5882;48.818;9.114;2023-12-29T12:41:49;0.90;;;0.90;;
11651;SDS011;5882;48.818;9.114;2023-12-29T12:44:36;0.82;;;0.82;;
11651;SDS011;5882;48.818;9.114;2023-12-29T12:47:25;1.73;;;1.48;;
11651;SDS011;5882;48.818;9.114;2023-12-29T12:50:10;1.77;;;1.40;;
11651;SDS011;5882;48.818;9.114;2023-12-29T12:52:55;1.27;;;1.17;;
11651;SDS011;5882;48.818;9.114;2023-12-29T12:55:41;1.38;;;1.13;;
11651;SDS011;5882;48.818;9.114;2023-12-29T12:58:26;1.30;;;1.20;;
11651;SDS011;5882;48.818;9.114;2023-12-29T13:01:13;1.50;;;1.13;;
11651;SDS011;5882;48.818;9.114;2023-12-29T13:03:58;1.73;;;1.60;;
11651;SDS011;5882;48.818;9.114;2023-12-29T13:06:45;3.92;;;2.03;;
11651;SDS011;5882;48.818;9.114;2023-12-29T13:09:31;1.92;;;1.30;;
11651;SDS011;5882;48.818;9.114;2023-12-29T13:12:16;1.20;;;1.10;;
11651;SDS011;5882;48.818;9.114;2023-12-29T13:15:04;1.08;;;1.00;;
11651;SDS011;5882;48.818;9.114;2023-12-29T13:17:52;0.90;;;0.90;;
11651;SDS011;5882;48.818;9.114;2023-12-29T13:20:43;2.78;;;1.83;;
11651;SDS011;5882;48.818;9.114;2023-12-29T13:23:28;2.45;;;1.83;;
11651;SDS011;5882;48.818;9.114;2023-12-29T13:26:13;2.20;;;1.45;;
11651;SDS011;5882;48.818;9.114;2023-12-29T13:28:59;1.27;;;1.17;;
11651;SDS011;5882;48.818;9.114;2023-12-29T13:31:44;1.55;;;1.40;;
11651;SDS011;5882;48.818;9.114;2023-12-29T13:34:32;1.40;;;1.30;;
11651;SDS011;5882;48.818;9.114;2023-12-29T13:37:21;1.02;;;1.00;;
11651;SDS011;5882;48.818;9.114;2023-12-29T13:40:10;1.00;;;1.00;;
11651;SDS011;5882;48.818;9.114;2023-12-29T13:42:59;1.13;;;1.00;;
11651;SDS011;5882;48.818;9.114;2023-12-29T13:45:46;1.17;;;1.13;;
11651;SDS011;5882;48.818;9.114;2023-12-29T13:48:32;0.93;;;0.93;;
11651;SDS011;5882;48.818;9.114;2023-12-29T13:51:19;1.20;;;1.10;;
11651;SDS011;5882;48.818;9.114;2023-12-29T13:54:07;1.60;;;1.42;;
11651;SDS011;5882;48.818;9.114;2023-12-29T13:56:53;1.40;;;1.30;;
11651;SDS011;5882;48.818;9.114;2023-12-29T13:59:38;1.10;;;1.02;;
11651;SDS011;5882;48.818;9.114;2023-12-29T14:02:26;1.17;;;1.10;;
11651;SDS011;5882;48.818;9.114;2023-12-29T14:05:18;0.95;;;0.90;;
11651;SDS011;5882;48.818;9.114;2023-12-29T14:08:08;1.20;;;1.10;;
11651;SDS011;5882;48.818;9.114;2023-12-29T14:10:56;1.10;;;1.00;;
11651;SDS011;5882;48.818;9.114;2023-12-29T14:13:41;0.90;;;0.90;;
11651;SDS011;5882;48.818;9.114;2023-12-29T14:16:27;1.50;;;1.20;;
11651;SDS011;5882;48.818;9.114;2023-12-29T14:19:12;1.00;;;1.00;;
11651;SDS011;5882;48.818;9.114;2023-12-29T14:21:57;1.30;;;1.20;;
11651;SDS011;5882;48.818;9.114;2023-12-29T14:24:44;1.35;;;1.15;;
11651;SDS011;5882;48.818;9.114;2023-12-29T14:27:43;1.30;;;1.20;;
11651;SDS011;5882;48.818;9.114;2023-12-29T14:30:36;0.90;;;0.90;;
11651;SDS011;5882;48.818;9.114;2023-12-29T14:33:21;1.15;;;1.10;;
11651;SDS011;5882;48.818;9.114;2023-12-29T14:36:07;1.05;;;0.95;;
11651;SDS011;5882;48.818;9.114;2023-12-29T14:38:53;1.10;;;1.10;;
11651;SDS011;5882;48.818;9.114;2023-12-29T14:41:40;3.58;;;1.20;;
11651;SDS011;5882;48.818;9.114;2023-12-29T14:44:25;0.90;;;0.90;;
11651;SDS011;5882;48.818;9.114;2023-12-29T14:47:10;0.90;;;0.90;;
11651;SDS011;5882;48.818;9.114;2023-12-29T14:49:55;1.42;;;1.25;;
11651;SDS011;5882;48.818;9.114;2023-12-29T14:52:40;1.77;;;1.30;;
11651;SDS011;5882;48.818;9.114;2023-12-29T14:55:26;0.98;;;0.98;;
11651;SDS011;5882;48.818;9.114;2023-12-29T14:58:12;0.90;;;0.90;;
11651;SDS011;5882;48.818;9.114;2023-12-29T15:00:58;1.02;;;1.02;;
11651;SDS011;5882;48.818;9.114;2023-12-29T15:03:43;0.80;;;0.80;;
11651;SDS011;5882;48.818;9.114;2023-12-29T15:06:28;1.05;;;1.05;;
11651;SDS011;5882;48.818;9.114;2023-12-29T15:09:14;1.00;;;1.00;;
11651;SDS011;5882;48.818;9.114;2023-12-29T15:12:00;1.00;;;1.00;;
11651;SDS011;5882;48.818;9.114;2023-12-29T15:14:47;0.90;;;0.90;;
11651;SDS011;5882;48.818;9.114;2023-12-29T15:17:32;1.67;;;1.58;;
11651;SDS011;5882;48.818;9.114;2023-12-29T15:20:17;1.00;;;1.00;;
11651;SDS011;5882;48.818;9.114;2023-12-29T15:23:03;1.35;;;1.25;;
11651;SDS011;5882;48.818;9.114;2023-12-29T15:25:48;0.90;;;0.90;;
11651;SDS011;5882;48.818;9.114;2023-12-29T15:28:33;0.95;;;0.95;;
11651;SDS011;5882;48.818;9.114;2023-12-29T15:31:20;0.98;;;0.98;;
11651;SDS011;5882;48.818;9.114;2023-12-29T15:34:05;1.17;;;1.10;;
11651;SDS011;5882;48.818;9.114;2023-12-29T15:36:50;0.80;;;0.80;;
11651;SDS011;5882;48.818;9.114;2023-12-29T15:39:36;0.82;;;0.82;;
11651;SDS011;5882;48.818;9.114;2023-12-29T15:42:21;1.08;;;1.00;;
11651;SDS011;5882;48.818;9.114;2023-12-29T15:45:07;0.90;;;0.90;;
11651;SDS011;5882;48.818;9.114;2023-12-29T15:47:53;1.05;;;1.02;;
11651;SDS011;5882;48.818;9.114;2023-12-29T15:50:38;1.02;;;1.02;;
11651;SDS011;5882;48.818;9.114;2023-12-29T15:53:24;1.17;;;1.08;;
11651;SDS011;5882;48.818;9.114;2023-12-29T15:56:15;1.13;;;1.02;;
11651;SDS011;5882;48.818;9.114;2023-12-29T15:59:02;1.20;;;1.10;;
11651;SDS011;5882;48.818;9.114;2023-12-29T16:01:47;0.85;;;0.85;;
11651;SDS011;5882;48.818;9.114;2023-12-29T16:04:33;1.10;;;1.10;;
11651;SDS011;5882;48.818;9.114;2023-12-29T16:07:18;0.88;;;0.88;;
11651;SDS011;5882;48.818;9.114;2023-12-29T16:10:04;1.17;;;1.08;;
11651;SDS011;5882;48.818;9.114;2023-12-29T16:12:51;1.00;;;1.00;;
11651;SDS011;5882;48.818;9.114;2023-12-29T16:15:36;1.00;;;1.00;;
11651;SDS011;5882;48.818;9.114;2023-12-29T16:18:21;4.20;;;1.00;;
11651;SDS011;5882;48.818;9.114;2023-12-29T16:21:09;0.95;;;0.95;;
11651;SDS011;5882;48.818;9.114;2023-12-29T16:23:54;1.05;;;1.05;;
11651;SDS011;5882;48.818;9.114;2023-12-29T16:26:39;1.10;;;1.00;;
11651;SDS011;5882;48.818;9.114;2023-12-29T16:29:25;1.40;;;1.30;;
11651;SDS011;5882;48.818;9.114;2023-12-29T16:32:10;1.02;;;1.02;;
11651;SDS011;5882;48.818;9.114;2023-12-29T16:35:01;1.05;;;1.02;;
11651;SDS011;5882;48.818;9.114;2023-12-29T16:37:48;1.10;;;1.10;;
11651;SDS011;5882;48.818;9.114;2023-12-29T16:40:33;1.40;;;1.30;;
11651;SDS011;5882;48.818;9.114;2023-12-29T16:43:19;1.30;;;1.20;;
11651;SDS011;5882;48.818;9.114;2023-12-29T16:46:04;1.00;;;1.00;;
11651;SDS011;5882;48.818;9.114;2023-12-29T16:48:49;1.05;;;1.00;;
11651;SDS011;5882;48.818;9.114;2023-12-29T16:51:34;1.10;;;1.10;;
11651;SDS011;5882;48.818;9.114;2023-12-29T16:54:21;1.50;;;1.30;;
11651;SDS011;5882;48.818;9.114;2023-12-29T16:57:06;1.92;;;1.67;;
11651;SDS011;5882;48.818;9.114;2023-12-29T16:59:51;1.58;;;1.48;;
11651;SDS011;5882;48.818;9.114;2023-12-29T17:02:36;1.90;;;1.48;;